createdAt,value
2024-01-18T00:00:41.575Z,-0.76
2024-01-18T00:03:08.816Z,-0.82
2024-01-18T00:05:35.237Z,-0.73
2024-01-18T00:08:01.684Z,-0.76
2024-01-18T00:10:29.086Z,-0.78
2024-01-18T00:12:56.024Z,-0.69
2024-01-18T00:15:22.781Z,-0.78
2024-01-18T00:17:49.767Z,-0.77
2024-01-18T00:20:16.408Z,-0.76
2024-01-18T00:22:42.751Z,-0.75
2024-01-18T00:25:09.445Z,-0.73
2024-01-18T00:27:35.868Z,-0.80
2024-01-18T00:30:02.485Z,-0.80
2024-01-18T00:32:28.932Z,-0.79
2024-01-18T00:34:55.313Z,-0.87
2024-01-18T00:37:21.644Z,-0.86
2024-01-18T00:39:48.007Z,-0.79
2024-01-18T00:42:14.424Z,-0.85
2024-01-18T00:44:40.777Z,-0.83
2024-01-18T00:47:07.547Z,-0.85
2024-01-18T00:49:34.505Z,-0.91
2024-01-18T00:52:00.955Z,-0.93
2024-01-18T00:54:27.342Z,-0.88
2024-01-18T00:56:53.798Z,-0.89
2024-01-18T00:59:20.294Z,-0.84
2024-01-18T01:01:46.640Z,-0.86
2024-01-18T01:04:13.083Z,-0.87
2024-01-18T01:06:39.443Z,-0.90
2024-01-18T01:09:07.477Z,-0.97
2024-01-18T01:11:33.972Z,-0.98
2024-01-18T01:14:00.718Z,-0.85
2024-01-18T01:16:27.069Z,-0.92
2024-01-18T01:18:53.426Z,-0.88
2024-01-18T01:21:19.892Z,-0.95
2024-01-18T01:23:49.837Z,-1.03
2024-01-18T01:26:16.929Z,-0.96
2024-01-18T01:28:43.730Z,-0.94
2024-01-18T01:31:10.342Z,-0.92
2024-01-18T01:33:37.346Z,-0.98
2024-01-18T01:36:05.265Z,-0.87
2024-01-18T01:38:31.749Z,-0.88
2024-01-18T01:40:58.154Z,-0.83
2024-01-18T01:43:24.548Z,-0.81
2024-01-18T01:45:50.930Z,-0.88
2024-01-18T01:48:18.041Z,-0.90
2024-01-18T01:50:45.326Z,-0.96
2024-01-18T01:53:12.679Z,-0.94
2024-01-18T01:55:39.354Z,-0.95
2024-01-18T01:58:06.203Z,-0.92
2024-01-18T02:00:33.151Z,-0.95
2024-01-18T02:02:59.846Z,-0.94
2024-01-18T02:05:27.865Z,-0.96
2024-01-18T02:07:55.898Z,-0.88
2024-01-18T02:10:23.458Z,-0.92
2024-01-18T02:12:53.265Z,-0.93
2024-01-18T02:15:20.340Z,-0.93
2024-01-18T02:17:47.050Z,-0.90
2024-01-18T02:20:13.460Z,-0.94
2024-01-18T02:22:44.035Z,-0.97
2024-01-18T02:25:23.556Z,-0.96
2024-01-18T02:27:49.980Z,-1.07
2024-01-18T02:30:16.477Z,-1.01
2024-01-18T02:32:42.950Z,-0.96
2024-01-18T02:35:09.663Z,-0.96
2024-01-18T02:37:36.074Z,-1.07
2024-01-18T02:40:03.187Z,-0.93
2024-01-18T02:42:29.614Z,-0.91
2024-01-18T02:44:58.871Z,-0.95
2024-01-18T02:47:29.217Z,-0.94
2024-01-18T02:49:58.355Z,-0.94
2024-01-18T02:52:24.792Z,-1.04
2024-01-18T02:54:51.116Z,-1.08
2024-01-18T02:57:17.541Z,-1.07
2024-01-18T02:59:43.871Z,-0.99
2024-01-18T03:02:10.191Z,-1.03
2024-01-18T03:04:36.636Z,-1.09
2024-01-18T03:07:03.170Z,-1.04
2024-01-18T03:09:29.583Z,-1.10
2024-01-18T03:11:55.997Z,-1.08
2024-01-18T03:14:22.389Z,-1.06
2024-01-18T03:16:48.718Z,-1.00
2024-01-18T03:19:15.133Z,-1.07
2024-01-18T03:21:41.673Z,-1.03
2024-01-18T03:24:08.079Z,-1.01
2024-01-18T03:26:34.642Z,-1.09
2024-01-18T03:29:00.969Z,-1.01
2024-01-18T03:31:27.336Z,-1.07
2024-01-18T03:33:53.823Z,-1.01
2024-01-18T03:36:20.249Z,-1.11
2024-01-18T03:38:46.628Z,-1.09
2024-01-18T03:41:16.049Z,-1.14
2024-01-18T03:43:42.384Z,-1.09
2024-01-18T03:46:13.608Z,-1.12
2024-01-18T03:48:39.935Z,-1.17
2024-01-18T03:51:06.522Z,-1.13
2024-01-18T03:53:32.877Z,-1.18
2024-01-18T03:56:00.518Z,-1.19
2024-01-18T03:58:26.915Z,-1.14
2024-01-18T04:00:53.420Z,-1.18
2024-01-18T04:03:21.637Z,-1.11
2024-01-18T04:05:48.116Z,-1.07
2024-01-18T04:08:14.567Z,-1.21
2024-01-18T04:10:40.903Z,-1.37
2024-01-18T04:13:07.259Z,-1.35
2024-01-18T04:15:33.640Z,-1.36
2024-01-18T04:18:00.154Z,-1.33
2024-01-18T04:20:28.719Z,-1.34
2024-01-18T04:22:55.317Z,-1.39
2024-01-18T04:25:22.708Z,-1.33
2024-01-18T04:27:49.194Z,-1.39
2024-01-18T04:30:15.706Z,-1.52
2024-01-18T04:32:42.124Z,-1.53
2024-01-18T04:35:08.793Z,-1.51
2024-01-18T04:37:35.230Z,-1.51
2024-01-18T04:40:02.342Z,-1.66
2024-01-18T04:42:28.720Z,-1.55
2024-01-18T04:44:55.198Z,-1.65
2024-01-18T04:47:21.569Z,-1.62
2024-01-18T04:49:48.097Z,-1.78
2024-01-18T04:52:14.483Z,-1.76
2024-01-18T04:54:40.919Z,-1.78
2024-01-18T04:57:07.588Z,-1.94
2024-01-18T04:59:34.100Z,-1.87
2024-01-18T05:02:00.448Z,-1.88
2024-01-18T05:04:27.107Z,-1.81
2024-01-18T05:06:53.637Z,-1.86
2024-01-18T05:09:20.110Z,-1.91
2024-01-18T05:11:47.184Z,-1.94
2024-01-18T05:14:13.541Z,-1.88
2024-01-18T05:16:44.535Z,-1.87
2024-01-18T05:19:11.013Z,-1.88
2024-01-18T05:21:37.466Z,-1.93
2024-01-18T05:24:04.119Z,-2.03
2024-01-18T05:26:30.507Z,-2.07
2024-01-18T05:28:57.142Z,-2.12
2024-01-18T05:31:23.488Z,-2.17
2024-01-18T05:33:50.087Z,-2.15
2024-01-18T05:36:16.504Z,-2.22
2024-01-18T05:38:42.894Z,-2.34
2024-01-18T05:41:09.838Z,-2.32
2024-01-18T05:43:36.174Z,-2.37
2024-01-18T05:46:03.916Z,-2.45
2024-01-18T05:48:30.380Z,-2.51
2024-01-18T05:50:56.803Z,-2.50
2024-01-18T05:53:23.212Z,-2.51
2024-01-18T05:55:49.652Z,-2.55
2024-01-18T05:58:16.077Z,-2.55
2024-01-18T06:00:42.993Z,-2.55
2024-01-18T06:03:09.563Z,-2.57
2024-01-18T06:05:35.921Z,-2.58
2024-01-18T06:08:03.283Z,-2.60
2024-01-18T06:10:29.660Z,-2.59
2024-01-18T06:12:55.974Z,-2.56
2024-01-18T06:15:23.554Z,-2.73
2024-01-18T06:17:49.934Z,-2.53
2024-01-18T06:20:16.467Z,-2.62
2024-01-18T06:22:42.897Z,-2.57
2024-01-18T06:25:09.240Z,-2.66
2024-01-18T06:27:36.593Z,-2.60
2024-01-18T06:30:03.229Z,-2.56
2024-01-18T06:32:29.995Z,-2.65
2024-01-18T06:34:56.476Z,-2.67
2024-01-18T06:37:23.510Z,-2.61
2024-01-18T06:39:51.067Z,-2.62
2024-01-18T06:42:17.981Z,-2.60
2024-01-18T06:44:47.575Z,-2.56
2024-01-18T06:47:13.993Z,-2.65
2024-01-18T06:49:40.445Z,-2.70
2024-01-18T06:52:06.970Z,-2.71
2024-01-18T06:54:33.408Z,-2.64
2024-01-18T06:56:59.960Z,-2.61
2024-01-18T06:59:26.293Z,-2.59
2024-01-18T07:01:53.725Z,-2.61
2024-01-18T07:04:20.725Z,-2.63
2024-01-18T07:06:47.136Z,-2.60
2024-01-18T07:09:13.647Z,-2.60
2024-01-18T07:11:40.399Z,-2.71
2024-01-18T07:14:06.858Z,-2.59
2024-01-18T07:16:33.437Z,-2.63
2024-01-18T07:18:59.876Z,-2.65
2024-01-18T07:21:26.372Z,-2.71
2024-01-18T07:23:52.869Z,-2.57
2024-01-18T07:26:19.848Z,-2.67
2024-01-18T07:28:46.290Z,-2.66
2024-01-18T07:31:12.759Z,-2.70
2024-01-18T07:33:39.363Z,-2.56
2024-01-18T07:36:06.534Z,-2.61
2024-01-18T07:38:32.969Z,-2.52
2024-01-18T07:40:59.320Z,-2.58
2024-01-18T07:43:25.661Z,-2.43
2024-01-18T07:45:52.085Z,-2.51
2024-01-18T07:48:18.575Z,-2.53
2024-01-18T07:50:45.091Z,-2.57
2024-01-18T07:53:12.461Z,-2.60
2024-01-18T07:55:38.873Z,-2.48
2024-01-18T07:58:05.350Z,-2.56
2024-01-18T08:00:31.840Z,-2.52
2024-01-18T08:02:58.300Z,-2.48
2024-01-18T08:05:25.395Z,-2.50
2024-01-18T08:07:51.802Z,-2.46
2024-01-18T08:10:18.171Z,-2.47
2024-01-18T08:12:45.552Z,-2.66
2024-01-18T08:15:15.106Z,-2.62
2024-01-18T08:17:43.530Z,-2.59
2024-01-18T08:20:14.167Z,-2.43
2024-01-18T08:22:41.662Z,-2.58
2024-01-18T08:25:09.219Z,-2.54
2024-01-18T08:27:35.617Z,-2.43
2024-01-18T08:30:02.151Z,-2.41
2024-01-18T08:32:32.947Z,-2.43
2024-01-18T08:34:59.308Z,-2.35
2024-01-18T08:37:25.725Z,-2.45
2024-01-18T08:39:52.132Z,-2.32
2024-01-18T08:42:18.576Z,-2.32
2024-01-18T08:44:47.198Z,-2.43
2024-01-18T08:47:13.676Z,-2.40
2024-01-18T08:49:40.120Z,-2.41
2024-01-18T08:52:06.775Z,-2.40
2024-01-18T08:54:33.275Z,-2.39
2024-01-18T08:56:59.650Z,-2.48
2024-01-18T08:59:26.053Z,-2.45
2024-01-18T09:01:52.559Z,-2.41
2024-01-18T09:04:18.963Z,-2.29
2024-01-18T09:06:45.369Z,-2.30
2024-01-18T09:09:12.322Z,-2.30
2024-01-18T09:11:39.298Z,-2.34
2024-01-18T09:14:05.851Z,-2.22
2024-01-18T09:16:32.872Z,-2.30
2024-01-18T09:19:10.725Z,-2.35
2024-01-18T09:21:42.632Z,-2.36
2024-01-18T09:24:09.290Z,-2.20
2024-01-18T09:26:35.636Z,-2.14
2024-01-18T09:29:03.316Z,-2.18
2024-01-18T09:31:38.120Z,-2.23
2024-01-18T09:34:08.270Z,-2.20
2024-01-18T09:36:34.639Z,-2.23
2024-01-18T09:39:01.019Z,-2.21
2024-01-18T09:41:30.187Z,-2.24
2024-01-18T09:44:04.273Z,-2.19
2024-01-18T09:46:31.539Z,-2.22
2024-01-18T09:49:02.036Z,-2.13
2024-01-18T09:51:30.665Z,-2.09
2024-01-18T09:53:57.374Z,-2.13
2024-01-18T09:56:28.345Z,-2.08
2024-01-18T09:58:55.944Z,-2.03
2024-01-18T10:01:24.869Z,-1.94
2024-01-18T10:03:52.128Z,-2.00
2024-01-18T10:06:20.035Z,-1.96
2024-01-18T10:08:47.817Z,-1.91
2024-01-18T10:11:14.351Z,-1.78
2024-01-18T10:13:57.531Z,-1.73
2024-01-18T10:16:31.531Z,-1.69
2024-01-18T10:18:59.135Z,-1.75
2024-01-18T10:21:25.787Z,-1.66
2024-01-18T10:23:54.148Z,-1.73
2024-01-18T10:26:22.966Z,-1.68
2024-01-18T10:28:49.940Z,-1.60
2024-01-18T10:31:16.294Z,-1.64
2024-01-18T10:33:42.715Z,-1.61
2024-01-18T10:36:09.502Z,-1.59
2024-01-18T10:38:37.507Z,-1.54
2024-01-18T10:41:04.919Z,-1.51
2024-01-18T10:43:32.276Z,-1.42
2024-01-18T10:45:59.753Z,-1.47
2024-01-18T10:48:36.873Z,-1.46
2024-01-18T10:51:06.157Z,-1.51
2024-01-18T10:53:34.792Z,-1.45
2024-01-18T10:56:02.397Z,-1.35
2024-01-18T10:58:28.879Z,-1.41
2024-01-18T11:00:55.949Z,-1.39
2024-01-18T11:03:22.616Z,-1.39
2024-01-18T11:05:49.614Z,-1.27
2024-01-18T11:08:17.355Z,-1.27
2024-01-18T11:10:45.923Z,-1.26
2024-01-18T11:13:14.198Z,-1.30
2024-01-18T11:15:42.865Z,-1.24
2024-01-18T11:18:10.659Z,-1.24
2024-01-18T11:20:59.096Z,-1.26
2024-01-18T11:23:29.748Z,-1.23
2024-01-18T11:25:56.331Z,-1.25
2024-01-18T11:28:29.528Z,-1.26
2024-01-18T11:30:56.296Z,-1.27
2024-01-18T11:33:23.301Z,-1.20
2024-01-18T11:35:50.206Z,-1.06
2024-01-18T11:38:26.799Z,-0.99
2024-01-18T11:40:57.650Z,-1.14
2024-01-18T11:43:25.500Z,-1.11
2024-01-18T11:45:52.234Z,-1.10
2024-01-18T11:48:19.898Z,-1.09
2024-01-18T11:50:46.638Z,-1.00
2024-01-18T11:53:15.119Z,-1.14
2024-01-18T11:55:49.755Z,-1.32
2024-01-18T11:58:17.772Z,-1.18
2024-01-18T12:00:44.228Z,-1.30
2024-01-18T12:03:13.802Z,-1.20
2024-01-18T12:05:41.554Z,-1.23
2024-01-18T12:08:09.450Z,-1.18
2024-01-18T12:10:36.430Z,-1.35
2024-01-18T12:13:02.868Z,-1.37
2024-01-18T12:15:29.698Z,-1.20
2024-01-18T12:17:56.471Z,-1.05
2024-01-18T12:20:23.081Z,-1.12
2024-01-18T12:22:49.488Z,-0.97
2024-01-18T12:25:15.972Z,-0.82
2024-01-18T12:27:42.512Z,-0.71
2024-01-18T12:30:10.092Z,-0.80
2024-01-18T12:32:36.921Z,-0.71
2024-01-18T12:35:03.724Z,-0.80
2024-01-18T12:37:30.370Z,-0.94
2024-01-18T12:39:56.855Z,-0.98
2024-01-18T12:42:23.466Z,-0.92
2024-01-18T12:44:53.489Z,-0.92
2024-01-18T12:47:19.928Z,-0.97
2024-01-18T12:49:46.823Z,-1.12
2024-01-18T12:52:16.233Z,-1.10
2024-01-18T12:54:44.253Z,-1.32
2024-01-18T12:57:12.319Z,-1.40
2024-01-18T12:59:38.909Z,-1.33
2024-01-18T13:02:05.384Z,-1.35
2024-01-18T13:04:35.379Z,-1.51
2024-01-18T13:07:04.627Z,-1.40
2024-01-18T13:09:33.755Z,-1.34
2024-01-18T13:12:03.811Z,-1.25
2024-01-18T13:14:31.618Z,-1.33
2024-01-18T13:16:58.473Z,-1.37
2024-01-18T13:19:25.542Z,-1.50
2024-01-18T13:21:53.505Z,-1.40
2024-01-18T13:24:21.199Z,-1.42
2024-01-18T13:26:48.696Z,-1.53
2024-01-18T13:29:17.471Z,-1.50
2024-01-18T13:31:43.861Z,-1.52
2024-01-18T13:34:10.249Z,-1.51
2024-01-18T13:36:36.674Z,-1.54
2024-01-18T13:39:07.201Z,-1.48
2024-01-18T13:41:33.645Z,-1.56
2024-01-18T13:44:00.046Z,-1.76
2024-01-18T13:46:26.391Z,-1.73
2024-01-18T13:48:54.060Z,-1.76
2024-01-18T13:51:20.559Z,-1.82
2024-01-18T13:53:51.300Z,-1.75
2024-01-18T13:56:21.758Z,-1.76
2024-01-18T13:58:48.758Z,-1.79
2024-01-18T14:01:15.526Z,-1.78
2024-01-18T14:03:46.995Z,-1.77
2024-01-18T14:06:16.895Z,-1.83
2024-01-18T14:08:47.522Z,-1.74
2024-01-18T14:11:15.054Z,-1.81
2024-01-18T14:13:42.449Z,-1.84
2024-01-18T14:16:13.002Z,-1.73
2024-01-18T14:18:39.738Z,-1.89
2024-01-18T14:21:06.271Z,-1.79
2024-01-18T14:23:33.351Z,-1.83
2024-01-18T14:26:01.373Z,-1.78
2024-01-18T14:28:27.855Z,-1.81
2024-01-18T14:30:54.410Z,-1.81
2024-01-18T14:33:22.378Z,-1.92
2024-01-18T14:35:49.127Z,-1.88
2024-01-18T14:38:15.513Z,-1.89
2024-01-18T14:40:44.098Z,-1.92
2024-01-18T14:43:12.296Z,-1.80
2024-01-18T14:45:38.686Z,-1.83
2024-01-18T14:48:16.248Z,-1.79
2024-01-18T14:50:45.997Z,-1.83
2024-01-18T14:53:14.180Z,-1.81
2024-01-18T14:55:40.516Z,-1.73
2024-01-18T14:58:07.497Z,-1.71
2024-01-18T15:00:40.790Z,-1.83
2024-01-18T15:03:08.115Z,-1.79
2024-01-18T15:05:35.171Z,-1.77
2024-01-18T15:08:03.996Z,-1.73
2024-01-18T15:10:31.277Z,-1.78
2024-01-18T15:12:58.172Z,-1.71
2024-01-18T15:15:24.683Z,-1.83
2024-01-18T15:17:51.236Z,-1.87
2024-01-18T15:20:18.074Z,-1.77
2024-01-18T15:22:44.497Z,-1.77
2024-01-18T15:25:11.316Z,-1.90
2024-01-18T15:27:38.766Z,-1.94
2024-01-18T15:30:06.330Z,-1.87
2024-01-18T15:32:33.762Z,-1.87
2024-01-18T15:35:01.103Z,-1.80
2024-01-18T15:37:27.546Z,-1.92
2024-01-18T15:39:53.994Z,-1.88
2024-01-18T15:42:20.444Z,-2.01
2024-01-18T15:44:46.975Z,-1.99
2024-01-18T15:47:15.003Z,-2.02
2024-01-18T15:49:42.981Z,-1.99
2024-01-18T15:52:10.611Z,-1.95
2024-01-18T15:54:37.345Z,-1.91
2024-01-18T15:57:05.492Z,-1.98
2024-01-18T15:59:32.045Z,-1.99
2024-01-18T16:01:58.537Z,-1.99
2024-01-18T16:04:25.085Z,-2.03
2024-01-18T16:06:51.574Z,-2.11
2024-01-18T16:09:18.070Z,-2.06
2024-01-18T16:11:45.873Z,-2.05
2024-01-18T16:14:12.272Z,-2.15
2024-01-18T16:16:38.733Z,-2.06
2024-01-18T16:19:05.119Z,-1.98
2024-01-18T16:21:31.618Z,-2.08
2024-01-18T16:23:58.918Z,-2.09
2024-01-18T16:26:25.269Z,-2.09
2024-01-18T16:28:51.605Z,-2.05
2024-01-18T16:31:17.992Z,-2.06
2024-01-18T16:33:44.462Z,-2.14
2024-01-18T16:36:10.908Z,-2.08
2024-01-18T16:38:37.472Z,-2.12
2024-01-18T16:41:04.209Z,-2.06
2024-01-18T16:43:30.627Z,-2.05
2024-01-18T16:45:57.079Z,-1.97
2024-01-18T16:48:23.566Z,-2.08
2024-01-18T16:50:50.788Z,-2.01
2024-01-18T16:53:17.163Z,-2.02
2024-01-18T16:55:43.616Z,-2.12
2024-01-18T16:58:10.244Z,-2.06
2024-01-18T17:00:36.591Z,-2.04
2024-01-18T17:03:03.041Z,-2.07
2024-01-18T17:05:29.503Z,-1.90
2024-01-18T17:07:55.933Z,-1.82
2024-01-18T17:10:22.253Z,-1.95
2024-01-18T17:12:48.608Z,-1.91
2024-01-18T17:15:15.037Z,-1.85
2024-01-18T17:17:41.422Z,-1.90
2024-01-18T17:20:10.226Z,-1.97
2024-01-18T17:22:38.945Z,-1.96
2024-01-18T17:25:07.504Z,-2.01
2024-01-18T17:27:33.829Z,-2.02
2024-01-18T17:30:00.236Z,-2.11
2024-01-18T17:32:26.856Z,-2.12
2024-01-18T17:34:55.783Z,-2.12
2024-01-18T17:37:22.119Z,-2.13
2024-01-18T17:39:48.487Z,-2.21
2024-01-18T17:42:14.844Z,-2.12
2024-01-18T17:44:41.414Z,-2.24
2024-01-18T17:47:08.492Z,-2.18
2024-01-18T17:49:35.040Z,-2.16
2024-01-18T17:52:01.483Z,-2.22
2024-01-18T17:54:27.850Z,-2.15
2024-01-18T17:56:54.208Z,-2.16
2024-01-18T17:59:20.544Z,-2.12
2024-01-18T18:01:48.022Z,-2.16
2024-01-18T18:04:14.482Z,-2.17
2024-01-18T18:06:40.910Z,-2.17
2024-01-18T18:09:08.213Z,-2.16
2024-01-18T18:11:34.595Z,-2.09
2024-01-18T18:14:00.948Z,-2.03
2024-01-18T18:16:27.281Z,-2.03
2024-01-18T18:18:53.709Z,-2.10
2024-01-18T18:21:23.988Z,-2.00
2024-01-18T18:23:51.596Z,-2.13
2024-01-18T18:26:18.017Z,-2.14
2024-01-18T18:28:44.431Z,-2.05
2024-01-18T18:31:11.211Z,-1.98
2024-01-18T18:33:37.669Z,-1.98
2024-01-18T18:36:04.516Z,-2.14
2024-01-18T18:38:33.500Z,-2.03
2024-01-18T18:41:00.632Z,-2.00
2024-01-18T18:43:29.976Z,-2.16
2024-01-18T18:45:57.275Z,-2.10
2024-01-18T18:48:24.160Z,-2.17
2024-01-18T18:50:51.108Z,-2.25
2024-01-18T18:53:18.403Z,-2.22
2024-01-18T18:55:45.179Z,-2.43
2024-01-18T18:58:12.869Z,-2.46
2024-01-18T19:00:39.310Z,-2.50
2024-01-18T19:03:05.910Z,-2.61
2024-01-18T19:05:32.361Z,-2.64
2024-01-18T19:07:58.770Z,-2.69
2024-01-18T19:10:25.120Z,-2.59
2024-01-18T19:12:51.463Z,-2.54
2024-01-18T19:15:18.395Z,-2.66
2024-01-18T19:17:44.802Z,-2.47
2024-01-18T19:20:11.546Z,-2.51
2024-01-18T19:22:41.121Z,-2.46
2024-01-18T19:25:09.245Z,-2.40
2024-01-18T19:27:35.526Z,-2.51
2024-01-18T19:30:01.939Z,-2.36
2024-01-18T19:32:28.382Z,-2.33
2024-01-18T19:34:54.844Z,-2.32
2024-01-18T19:37:21.204Z,-2.34
2024-01-18T19:39:48.377Z,-2.31
2024-01-18T19:42:16.071Z,-2.31
2024-01-18T19:44:43.255Z,-2.25
2024-01-18T19:47:09.659Z,-2.31
2024-01-18T19:49:36.033Z,-2.43
2024-01-18T19:52:04.600Z,-2.40
2024-01-18T19:54:31.254Z,-2.28
2024-01-18T19:56:57.603Z,-2.43
2024-01-18T19:59:24.210Z,-2.40
2024-01-18T20:01:50.664Z,-2.38
2024-01-18T20:04:20.615Z,-2.43
2024-01-18T20:06:47.116Z,-2.55
2024-01-18T20:09:13.473Z,-2.46
2024-01-18T20:11:39.842Z,-2.54
2024-01-18T20:14:06.399Z,-2.62
2024-01-18T20:16:33.057Z,-2.66
2024-01-18T20:18:59.489Z,-2.87
2024-01-18T20:21:25.898Z,-2.96
2024-01-18T20:23:52.525Z,-3.06
2024-01-18T20:26:19.017Z,-3.14
2024-01-18T20:28:46.535Z,-3.36
2024-01-18T20:31:15.123Z,-3.39
2024-01-18T20:33:43.358Z,-3.50
2024-01-18T20:36:10.070Z,-3.67
2024-01-18T20:38:36.466Z,-3.86
2024-01-18T20:41:02.890Z,-4.06
2024-01-18T20:43:29.257Z,-4.19
2024-01-18T20:45:55.558Z,-4.33
2024-01-18T20:48:22.160Z,-4.34
2024-01-18T20:50:48.709Z,-4.54
2024-01-18T20:53:16.039Z,-4.62
2024-01-18T20:55:42.404Z,-4.66
2024-01-18T20:58:09.886Z,-4.82
2024-01-18T21:00:36.339Z,-5.00
2024-01-18T21:03:02.930Z,-4.96
2024-01-18T21:05:29.512Z,-4.92
2024-01-18T21:07:56.363Z,-4.98
2024-01-18T21:10:23.164Z,-5.11
2024-01-18T21:12:49.726Z,-5.13
2024-01-18T21:15:16.158Z,-5.13
2024-01-18T21:17:45.065Z,-4.94
2024-01-18T21:20:12.461Z,-4.87
2024-01-18T21:22:38.915Z,-4.85
2024-01-18T21:25:05.432Z,-4.75
2024-01-18T21:27:31.763Z,-4.75
2024-01-18T21:29:58.349Z,-4.59
2024-01-18T21:32:24.750Z,-4.45
2024-01-18T21:34:51.782Z,-4.30
2024-01-18T21:37:18.233Z,-4.24
2024-01-18T21:39:44.582Z,-4.18
2024-01-18T21:42:10.985Z,-4.32
2024-01-18T21:44:38.088Z,-4.26
2024-01-18T21:47:04.733Z,-4.39
2024-01-18T21:49:32.020Z,-4.40
2024-01-18T21:51:58.651Z,-4.35
2024-01-18T21:54:25.100Z,-4.42
2024-01-18T21:56:51.680Z,-4.39
2024-01-18T21:59:24.959Z,-4.37
2024-01-18T22:01:59.248Z,-4.43
2024-01-18T22:04:25.967Z,-4.39
2024-01-18T22:06:52.349Z,-4.39
2024-01-18T22:09:24.531Z,-4.31
2024-01-18T22:11:57.295Z,-4.26
2024-01-18T22:14:23.732Z,-4.16
2024-01-18T22:16:50.579Z,-4.17
2024-01-18T22:19:29.362Z,-4.07
2024-01-18T22:22:03.271Z,-3.99
2024-01-18T22:24:29.647Z,-3.94
2024-01-18T22:26:55.983Z,-3.91
2024-01-18T22:29:22.365Z,-3.89
2024-01-18T22:31:48.686Z,-3.84
2024-01-18T22:34:15.021Z,-3.89
2024-01-18T22:36:41.342Z,-3.85
2024-01-18T22:39:07.683Z,-3.81
2024-01-18T22:41:34.027Z,-3.77
2024-01-18T22:44:00.441Z,-3.48
2024-01-18T22:46:31.009Z,-3.20
2024-01-18T22:48:58.278Z,-3.05
2024-01-18T22:51:24.848Z,-2.93
2024-01-18T22:53:51.245Z,-2.93
2024-01-18T22:56:17.721Z,-2.88
2024-01-18T22:58:44.158Z,-2.76
2024-01-18T23:01:10.599Z,-2.79
2024-01-18T23:03:36.960Z,-2.78
2024-01-18T23:06:04.949Z,-2.79
2024-01-18T23:08:31.851Z,-2.88
2024-01-18T23:11:01.074Z,-2.91
2024-01-18T23:13:27.751Z,-2.97
2024-01-18T23:15:54.297Z,-2.92
2024-01-18T23:18:20.765Z,-3.01
2024-01-18T23:20:48.076Z,-2.88
2024-01-18T23:23:14.676Z,-2.95
2024-01-18T23:25:41.965Z,-2.87
2024-01-18T23:28:08.450Z,-2.93
2024-01-18T23:30:36.840Z,-2.90
2024-01-18T23:33:03.333Z,-2.92
2024-01-18T23:35:29.757Z,-2.88
2024-01-18T23:37:56.122Z,-2.85
2024-01-18T23:40:22.455Z,-2.79
2024-01-18T23:42:48.930Z,-2.80
2024-01-18T23:45:16.169Z,-2.61
2024-01-18T23:47:42.636Z,-2.63
2024-01-18T23:50:09.625Z,-2.58
2024-01-18T23:52:35.983Z,-2.52
2024-01-18T23:55:04.468Z,-2.57
2024-01-18T23:57:30.822Z,-2.51
2024-01-18T23:59:57.220Z,-2.53
